createdAt,value
2018-11-26T00:00:53.229Z,97409.52
2018-11-26T00:03:21.560Z,97413.91
2018-11-26T00:05:49.909Z,97416.53
2018-11-26T00:08:18.321Z,97419.84
2018-11-26T00:11:05.929Z,97420.83
2018-11-26T00:16:08.731Z,97422.14
2018-11-26T00:18:37.157Z,97419.84
2018-11-26T00:21:05.891Z,97411.20
2018-11-26T00:23:53.172Z,97405.40
2018-11-26T00:26:21.525Z,97404.81
2018-11-26T00:29:08.815Z,97406.05
2018-11-26T00:31:37.318Z,97410.05
2018-11-26T00:34:05.807Z,97407.81
2018-11-26T00:36:34.517Z,97400.91
2018-11-26T00:39:02.856Z,97401.47
2018-11-26T00:41:31.842Z,97404.01
2018-11-26T00:47:07.062Z,97407.11
2018-11-26T00:55:16.649Z,97402.37
2018-11-26T01:00:38.573Z,97398.02
2018-11-26T01:03:07.112Z,97394.92
2018-11-26T01:05:54.345Z,97393.20
2018-11-26T01:08:22.731Z,97392.46
2018-11-26T01:10:51.219Z,97387.62
2018-11-26T01:13:19.892Z,97383.15
2018-11-26T01:15:48.792Z,97382.00
2018-11-26T01:18:17.095Z,97384.65
2018-11-26T01:20:45.463Z,97379.86
2018-11-26T01:23:32.756Z,97387.70
2018-11-26T01:26:20.331Z,97385.11
2018-11-26T01:28:49.050Z,97375.53
2018-11-26T01:31:18.133Z,97375.10
2018-11-26T01:36:53.702Z,97380.42
2018-11-26T01:39:22.170Z,97387.05
2018-11-26T01:41:50.853Z,97380.03
2018-11-26T01:44:19.946Z,97387.11
2018-11-26T01:46:48.616Z,97384.12
2018-11-26T01:49:36.020Z,97390.69
2018-11-26T01:52:23.539Z,97383.61
2018-11-26T01:54:51.919Z,97382.27
2018-11-26T01:57:39.177Z,97385.43
2018-11-26T02:00:17.435Z,97386.23
2018-11-26T02:05:19.381Z,97382.94
2018-11-26T02:07:48.253Z,97390.34
2018-11-26T02:10:17.457Z,97393.89
2018-11-26T02:12:46.188Z,97397.05
2018-11-26T02:15:33.449Z,97398.38
2018-11-26T02:18:01.819Z,97403.97
2018-11-26T02:20:30.940Z,97400.06
2018-11-26T02:23:18.216Z,97397.05
2018-11-26T02:25:46.923Z,97389.66
2018-11-26T02:28:15.579Z,97379.66
2018-11-26T02:31:02.927Z,97378.44
2018-11-26T02:33:31.233Z,97369.63
2018-11-26T02:36:18.886Z,97367.81
2018-11-26T02:38:47.229Z,97370.38
2018-11-26T02:41:15.912Z,97365.30
2018-11-26T02:46:51.050Z,97366.13
2018-11-26T02:49:19.823Z,97372.23
2018-11-26T02:51:48.541Z,97376.55
2018-11-26T02:54:16.869Z,97378.16
2018-11-26T02:56:45.236Z,97374.18
2018-11-26T02:59:32.492Z,97382.52
2018-11-26T03:02:00.933Z,97380.97
2018-11-26T03:04:29.264Z,97384.86
2018-11-26T03:07:16.366Z,97386.16
2018-11-26T03:10:03.649Z,97386.11
2018-11-26T03:12:50.949Z,97384.90
2018-11-26T03:15:19.362Z,97381.25
2018-11-26T03:17:48.016Z,97378.69
2018-11-26T03:20:16.334Z,97378.17
2018-11-26T03:23:03.632Z,97382.56
2018-11-26T03:28:19.581Z,97378.33
2018-11-26T03:30:47.926Z,97375.16
2018-11-26T03:33:35.229Z,97375.53
2018-11-26T03:36:03.830Z,97376.92
2018-11-26T03:38:51.222Z,97374.86
2018-11-26T03:41:38.505Z,97376.94
2018-11-26T03:44:06.834Z,97373.88
2018-11-26T03:46:36.045Z,97379.08
2018-11-26T03:49:04.769Z,97383.95
2018-11-26T03:54:07.890Z,97377.48
2018-11-26T03:56:36.325Z,97373.92
2018-11-26T03:59:04.577Z,97370.87
2018-11-26T04:01:33.346Z,97374.00
2018-11-26T04:04:01.659Z,97377.95
2018-11-26T04:06:30.007Z,97380.58
2018-11-26T04:09:07.393Z,97376.06
2018-11-26T04:11:54.955Z,97386.03
2018-11-26T04:14:23.587Z,97383.87
2018-11-26T04:17:10.651Z,97375.69
2018-11-26T04:19:39.405Z,97374.67
2018-11-26T04:22:26.686Z,97375.74
2018-11-26T04:27:48.713Z,97372.91
2018-11-26T04:30:17.085Z,97373.58
2018-11-26T04:32:45.745Z,97369.84
2018-11-26T04:38:07.828Z,97362.99
2018-11-26T04:40:55.147Z,97359.06
2018-11-26T04:43:42.182Z,97361.23
2018-11-26T04:46:10.658Z,97367.75
2018-11-26T04:51:26.858Z,97366.77
2018-11-26T04:54:14.459Z,97365.91
2018-11-26T04:56:43.492Z,97357.20
2018-11-26T04:59:30.734Z,97363.45
2018-11-26T05:01:59.118Z,97361.47
2018-11-26T05:04:46.396Z,97363.91
2018-11-26T05:07:34.009Z,97370.28
2018-11-26T05:10:02.621Z,97371.03
2018-11-26T05:12:49.892Z,97368.98
2018-11-26T05:15:37.009Z,97372.35
2018-11-26T05:18:06.066Z,97374.06
2018-11-26T05:20:34.581Z,97372.83
2018-11-26T05:23:03.210Z,97372.43
2018-11-26T05:28:06.078Z,97365.97
2018-11-26T05:30:34.451Z,97357.75
2018-11-26T05:33:02.869Z,97361.41
2018-11-26T05:35:50.225Z,97358.50
2018-11-26T05:38:18.565Z,97363.15
2018-11-26T05:40:47.239Z,97363.58
2018-11-26T05:43:15.707Z,97366.90
2018-11-26T05:46:03.021Z,97366.56
2018-11-26T05:54:11.776Z,97374.38
2018-11-26T05:56:41.372Z,97371.78
2018-11-26T05:59:09.716Z,97367.86
2018-11-26T06:01:38.807Z,97373.02
2018-11-26T06:04:07.695Z,97370.45
2018-11-26T06:06:36.269Z,97371.96
2018-11-26T06:11:40.098Z,97367.83
2018-11-26T06:14:27.337Z,97364.67
2018-11-26T06:17:14.908Z,97364.22
2018-11-26T06:19:43.246Z,97364.66
2018-11-26T06:22:11.627Z,97369.73
2018-11-26T06:24:40.228Z,97372.00
2018-11-26T06:27:08.548Z,97370.69
2018-11-26T06:32:11.790Z,97371.44
2018-11-26T06:34:42.514Z,97374.41
2018-11-26T06:37:08.426Z,97379.73
2018-11-26T06:39:36.825Z,97375.64
2018-11-26T06:44:52.939Z,97373.27
2018-11-26T06:47:21.280Z,97374.78
2018-11-26T06:50:08.458Z,97377.56
2018-11-26T06:52:36.821Z,97379.37
2018-11-26T06:55:24.392Z,97383.39
2018-11-26T06:57:52.796Z,97381.55
2018-11-26T07:00:21.950Z,97380.21
2018-11-26T07:05:38.269Z,97385.43
2018-11-26T07:10:54.508Z,97394.91
2018-11-26T07:13:22.878Z,97394.73
2018-11-26T07:18:38.780Z,97398.57
2018-11-26T07:21:07.641Z,97403.02
2018-11-26T07:23:36.830Z,97411.02
2018-11-26T07:26:23.906Z,97407.53
2018-11-26T07:31:46.092Z,97409.42
2018-11-26T07:36:48.885Z,97414.25
2018-11-26T07:39:17.430Z,97419.43
2018-11-26T07:41:45.733Z,97419.09
2018-11-26T07:44:14.406Z,97422.36
2018-11-26T07:46:42.750Z,97417.84
2018-11-26T07:49:11.124Z,97420.03
2018-11-26T07:51:39.385Z,97430.00
2018-11-26T07:56:41.385Z,97429.18
2018-11-26T07:59:09.778Z,97433.13
2018-11-26T08:01:38.262Z,97431.13
2018-11-26T08:04:06.592Z,97433.86
2018-11-26T08:06:34.890Z,97432.63
2018-11-26T08:09:22.293Z,97431.80
2018-11-26T08:11:50.663Z,97436.00
2018-11-26T08:14:19.428Z,97437.68
2018-11-26T08:16:47.845Z,97441.98
2018-11-26T08:19:16.606Z,97449.59
2018-11-26T08:21:46.199Z,97444.88
2018-11-26T08:27:00.918Z,97445.26
2018-11-26T08:29:29.265Z,97448.46
2018-11-26T08:31:58.199Z,97445.11
2018-11-26T08:34:26.613Z,97448.11
2018-11-26T08:37:13.667Z,97449.56
2018-11-26T08:40:01.055Z,97452.88
2018-11-26T08:42:40.242Z,97455.13
2018-11-26T08:45:46.296Z,97451.94
2018-11-26T08:48:33.369Z,97455.02
2018-11-26T08:51:02.357Z,97462.13
2018-11-26T08:53:49.661Z,97453.63
2018-11-26T08:56:36.769Z,97461.84
2018-11-26T08:59:05.421Z,97457.08
2018-11-26T09:01:34.127Z,97459.80
2018-11-26T09:04:21.211Z,97463.05
2018-11-26T09:09:37.460Z,97467.34
2018-11-26T09:12:05.974Z,97466.44
2018-11-26T09:14:34.621Z,97473.20
2018-11-26T09:17:03.245Z,97473.47
2018-11-26T09:19:31.929Z,97480.95
2018-11-26T09:22:00.300Z,97474.20
2018-11-26T09:24:28.741Z,97471.31
2018-11-26T09:26:57.107Z,97477.64
2018-11-26T09:29:25.429Z,97477.27
2018-11-26T09:31:53.768Z,97476.48
2018-11-26T09:34:41.076Z,97485.48
2018-11-26T09:39:57.324Z,97488.47
2018-11-26T09:42:25.696Z,97485.11
2018-11-26T09:47:28.698Z,97486.88
2018-11-26T09:49:57.069Z,97488.22
2018-11-26T09:52:25.413Z,97491.53
2018-11-26T09:54:53.760Z,97489.22
2018-11-26T09:57:22.105Z,97488.68
2018-11-26T09:59:51.084Z,97490.48
2018-11-26T10:02:19.433Z,97484.86
2018-11-26T10:04:47.841Z,97485.43
2018-11-26T10:07:16.170Z,97481.36
2018-11-26T10:10:03.544Z,97484.66
2018-11-26T10:12:32.570Z,97487.64
2018-11-26T10:15:00.908Z,97481.52
2018-11-26T10:17:48.177Z,97476.69
2018-11-26T10:23:23.358Z,97473.58
2018-11-26T10:26:10.886Z,97473.39
2018-11-26T10:28:39.521Z,97474.33
2018-11-26T10:31:07.847Z,97470.70
2018-11-26T10:33:36.187Z,97472.02
2018-11-26T10:36:04.597Z,97472.91
2018-11-26T10:38:32.945Z,97471.73
2018-11-26T10:41:01.317Z,97472.95
2018-11-26T10:43:29.635Z,97470.49
2018-11-26T10:45:58.282Z,97472.35
2018-11-26T10:51:14.251Z,97480.88
2018-11-26T10:56:49.226Z,97481.38
2018-11-26T10:59:17.594Z,97479.33
2018-11-26T11:02:23.602Z,97482.89
2018-11-26T11:04:51.948Z,97487.38
2018-11-26T11:07:20.352Z,97486.34
2018-11-26T11:09:49.137Z,97486.28
2018-11-26T11:12:17.517Z,97492.91
2018-11-26T11:14:46.116Z,97488.31
2018-11-26T11:17:33.393Z,97494.22
2018-11-26T11:20:01.874Z,97480.27
2018-11-26T11:22:30.237Z,97479.05
2018-11-26T11:24:58.579Z,97479.67
2018-11-26T11:30:33.425Z,97472.77
2018-11-26T11:35:29.398Z,97478.41
2018-11-26T11:38:16.966Z,97468.44
2018-11-26T11:43:19.158Z,97466.61
2018-11-26T11:45:47.800Z,97474.97
2018-11-26T11:51:04.127Z,97478.96
2018-11-26T11:53:33.035Z,97479.36
2018-11-26T11:56:01.405Z,97476.16
2018-11-26T11:58:29.981Z,97477.25
2018-11-26T12:00:58.330Z,97482.66
2018-11-26T12:03:26.709Z,97486.39
2018-11-26T12:05:55.324Z,97490.16
2018-11-26T12:08:23.687Z,97488.52
2018-11-26T12:10:52.568Z,97485.20
2018-11-26T12:13:21.481Z,97487.28
2018-11-26T12:16:09.495Z,97483.19
2018-11-26T12:18:37.792Z,97488.56
2018-11-26T12:21:25.334Z,97488.47
2018-11-26T12:23:54.013Z,97492.13
2018-11-26T12:26:22.675Z,97485.14
2018-11-26T12:28:51.283Z,97486.27
2018-11-26T12:31:19.631Z,97486.07
2018-11-26T12:33:48.011Z,97489.75
2018-11-26T12:36:16.751Z,97484.99
2018-11-26T12:41:33.115Z,97487.45
2018-11-26T12:44:20.656Z,97482.16
2018-11-26T12:46:49.261Z,97483.81
2018-11-26T12:49:18.055Z,97484.50
2018-11-26T12:54:21.074Z,97488.77
2018-11-26T12:56:50.379Z,97485.67
2018-11-26T13:02:07.017Z,97495.07
2018-11-26T13:04:35.367Z,97503.41
2018-11-26T13:07:03.763Z,97495.01
2018-11-26T13:09:51.042Z,97508.75
2018-11-26T13:12:38.161Z,97509.08
2018-11-26T13:15:08.739Z,97505.27
2018-11-26T13:17:56.342Z,97510.67
2018-11-26T13:20:26.509Z,97512.34
2018-11-26T13:23:14.091Z,97511.80
2018-11-26T13:25:42.991Z,97516.03
2018-11-26T13:28:11.668Z,97513.34
2018-11-26T13:30:40.781Z,97522.23
2018-11-26T13:35:44.989Z,97523.66
2018-11-26T13:38:32.237Z,97518.03
2018-11-26T13:41:19.800Z,97526.30
2018-11-26T13:43:48.133Z,97527.25
2018-11-26T13:46:16.448Z,97530.42
2018-11-26T13:49:03.549Z,97534.48
2018-11-26T13:54:06.715Z,97541.69
2018-11-26T13:56:35.036Z,97549.13
2018-11-26T13:59:03.346Z,97550.95
2018-11-26T14:01:50.622Z,97552.17
2018-11-26T14:04:18.976Z,97557.75
2018-11-26T14:06:47.308Z,97557.31
2018-11-26T14:09:15.960Z,97555.98
2018-11-26T14:11:44.633Z,97561.41
2018-11-26T14:14:31.988Z,97561.44
2018-11-26T14:17:00.305Z,97565.80
2018-11-26T14:19:47.853Z,97566.70
2018-11-26T14:22:16.996Z,97564.64
2018-11-26T14:25:04.587Z,97561.17
2018-11-26T14:27:33.211Z,97562.17
2018-11-26T14:30:02.107Z,97566.67
2018-11-26T14:32:30.742Z,97563.22
2018-11-26T14:38:11.242Z,97569.73
2018-11-26T14:43:24.153Z,97576.05
2018-11-26T14:45:52.843Z,97568.13
2018-11-26T14:48:21.151Z,97576.12
2018-11-26T14:51:08.757Z,97577.06
2018-11-26T14:53:37.409Z,97582.23
2018-11-26T14:56:24.963Z,97589.72
2018-11-26T14:58:53.548Z,97590.91
2018-11-26T15:04:15.346Z,97596.41
2018-11-26T15:07:02.645Z,97599.48
2018-11-26T15:09:30.963Z,97604.58
2018-11-26T15:12:18.835Z,97607.89
2018-11-26T15:15:05.881Z,97612.62
2018-11-26T15:17:34.658Z,97614.38
2018-11-26T15:20:03.473Z,97611.77
2018-11-26T15:22:31.788Z,97617.92
2018-11-26T15:27:35.133Z,97620.48
2018-11-26T15:32:37.326Z,97622.31
2018-11-26T15:35:06.531Z,97627.16
2018-11-26T15:37:35.138Z,97631.02
2018-11-26T15:40:03.481Z,97640.65
2018-11-26T15:45:20.498Z,97638.70
2018-11-26T15:48:07.807Z,97640.86
2018-11-26T15:50:55.054Z,97642.56
2018-11-26T15:53:23.941Z,97650.64
2018-11-26T15:55:52.618Z,97657.56
2018-11-26T15:58:23.689Z,97654.94
2018-11-26T16:01:09.175Z,97657.06
2018-11-26T16:03:57.076Z,97656.80
2018-11-26T16:06:44.324Z,97662.94
2018-11-26T16:09:12.894Z,97665.18
2018-11-26T16:11:41.581Z,97662.63
2018-11-26T16:14:10.256Z,97661.37
2018-11-26T16:16:38.651Z,97660.06
2018-11-26T16:19:09.657Z,97658.24
2018-11-26T16:21:56.901Z,97667.16
2018-11-26T16:24:25.256Z,97664.47
2018-11-26T16:26:53.993Z,97672.25
2018-11-26T16:29:22.681Z,97670.55
2018-11-26T16:32:10.028Z,97675.52
2018-11-26T16:37:45.153Z,97683.03
2018-11-26T16:40:32.410Z,97682.45
2018-11-26T16:43:00.766Z,97682.11
2018-11-26T16:45:48.350Z,97686.85
2018-11-26T16:48:35.622Z,97691.08
2018-11-26T16:51:03.941Z,97695.03
2018-11-26T16:56:06.643Z,97703.86
2018-11-26T16:58:35.002Z,97705.89
2018-11-26T17:01:03.380Z,97705.83
2018-11-26T17:03:31.754Z,97710.22
2018-11-26T17:06:00.056Z,97715.39
2018-11-26T17:08:28.645Z,97720.17
2018-11-26T17:13:50.149Z,97724.61
2018-11-26T17:16:18.483Z,97729.79
2018-11-26T17:18:47.122Z,97732.85
2018-11-26T17:21:15.718Z,97737.91
2018-11-26T17:24:02.970Z,97744.52
2018-11-26T17:26:31.346Z,97749.77
2018-11-26T17:28:59.901Z,97751.53
2018-11-26T17:34:16.196Z,97760.77
2018-11-26T17:36:44.603Z,97758.13
2018-11-26T17:39:12.924Z,97765.80
2018-11-26T17:41:41.259Z,97761.66
2018-11-26T17:44:10.735Z,97762.73
2018-11-26T17:46:39.653Z,97761.55
2018-11-26T17:49:08.240Z,97769.91
2018-11-26T17:51:55.531Z,97762.98
2018-11-26T17:59:50.982Z,97768.75
2018-11-26T18:02:19.696Z,97773.25
2018-11-26T18:05:07.220Z,97777.24
2018-11-26T18:07:54.512Z,97786.87
2018-11-26T18:10:22.858Z,97783.46
2018-11-26T18:13:10.456Z,97789.09
2018-11-26T18:15:57.582Z,97791.25
2018-11-26T18:21:18.997Z,97791.72
2018-11-26T18:23:47.635Z,97799.28
2018-11-26T18:26:35.007Z,97798.77
2018-11-26T18:29:03.721Z,97796.61
2018-11-26T18:31:51.229Z,97805.90
2018-11-26T18:34:19.573Z,97805.83
2018-11-26T18:36:48.004Z,97810.56
2018-11-26T18:39:35.626Z,97812.65
2018-11-26T18:42:04.350Z,97813.96
2018-11-26T18:44:32.992Z,97811.28
2018-11-26T18:47:20.514Z,97816.48
2018-11-26T18:50:08.459Z,97817.31
2018-11-26T18:52:37.459Z,97815.51
2018-11-26T18:55:25.003Z,97816.40
2018-11-26T18:57:53.760Z,97822.56
2018-11-26T19:00:41.050Z,97823.52
2018-11-26T19:03:28.611Z,97821.72
2018-11-26T19:06:15.881Z,97829.17
2018-11-26T19:09:03.673Z,97838.67
2018-11-26T19:11:32.373Z,97835.70
2018-11-26T19:14:19.955Z,97844.25
2018-11-26T19:16:49.906Z,97839.62
2018-11-26T19:19:42.022Z,97845.89
2018-11-26T19:22:06.117Z,97844.13
2018-11-26T19:24:53.359Z,97838.22
2018-11-26T19:27:40.679Z,97849.05
2018-11-26T19:30:28.287Z,97844.77
2018-11-26T19:33:15.622Z,97847.48
2018-11-26T19:36:03.450Z,97855.74
2018-11-26T19:38:31.746Z,97857.91
2018-11-26T19:43:53.167Z,97867.64
2018-11-26T19:48:55.892Z,97867.02
2018-11-26T19:51:43.427Z,97870.66
2018-11-26T19:54:12.487Z,97873.11
2018-11-26T19:57:00.188Z,97876.24
2018-11-26T19:59:28.800Z,97873.98
2018-11-26T20:01:57.779Z,97883.66
2018-11-26T20:04:45.056Z,97886.61
2018-11-26T20:07:13.707Z,97886.95
2018-11-26T20:09:42.286Z,97887.88
2018-11-26T20:15:03.902Z,97893.45
2018-11-26T20:17:51.167Z,97892.48
2018-11-26T20:20:19.639Z,97902.72
2018-11-26T20:25:55.468Z,97899.20
2018-11-26T20:28:24.139Z,97901.31
2018-11-26T20:30:52.904Z,97905.34
2018-11-26T20:36:10.827Z,97907.06
2018-11-26T20:38:58.659Z,97917.20
2018-11-26T20:44:20.215Z,97922.77
2018-11-26T20:46:49.242Z,97928.13
2018-11-26T20:49:36.827Z,97931.14
2018-11-26T20:52:05.219Z,97934.27
2018-11-26T20:54:33.531Z,97937.30
2018-11-26T20:57:02.195Z,97938.66
2018-11-26T20:59:30.947Z,97948.23
2018-11-26T21:01:59.370Z,97952.25
2018-11-26T21:07:02.981Z,97955.27
2018-11-26T21:09:31.555Z,97956.99
2018-11-26T21:12:18.814Z,97956.59
2018-11-26T21:17:21.920Z,97965.35
2018-11-26T21:20:09.847Z,97971.08
2018-11-26T21:25:31.404Z,97978.03
2018-11-26T21:27:59.845Z,97985.08
2018-11-26T21:30:28.524Z,97980.70
2018-11-26T21:33:16.115Z,97982.77
2018-11-26T21:35:44.421Z,97981.05
2018-11-26T21:38:12.911Z,97987.20
2018-11-26T21:40:41.630Z,97988.78
2018-11-26T21:43:29.392Z,97988.27
2018-11-26T21:48:47.417Z,97983.44
2018-11-26T21:51:16.155Z,97982.17
2018-11-26T21:53:44.930Z,97986.14
2018-11-26T21:56:14.719Z,97985.80
2018-11-26T21:58:43.961Z,97995.52
2018-11-26T22:01:13.100Z,97994.75
2018-11-26T22:03:42.259Z,97997.17
2018-11-26T22:06:29.882Z,97997.10
2018-11-26T22:11:49.559Z,98001.44
2018-11-26T22:14:32.855Z,98002.80
2018-11-26T22:17:24.771Z,98007.30
2018-11-26T22:20:16.734Z,98010.78
2018-11-26T22:23:07.911Z,98017.36
2018-11-26T22:25:56.262Z,98014.20
2018-11-26T22:28:53.141Z,98022.27
2018-11-26T22:31:22.353Z,98025.63
2018-11-26T22:33:51.175Z,98029.14
2018-11-26T22:36:19.573Z,98034.83
2018-11-26T22:38:48.541Z,98033.84
2018-11-26T22:41:17.013Z,98040.51
2018-11-26T22:44:04.533Z,98047.61
2018-11-26T22:46:33.402Z,98042.86
2018-11-26T22:51:51.584Z,98047.13
2018-11-26T22:54:36.641Z,98050.64
2018-11-26T22:57:04.955Z,98047.20
2018-11-26T22:59:33.462Z,98048.51
2018-11-26T23:02:02.227Z,98051.05
2018-11-26T23:04:31.196Z,98051.02
2018-11-26T23:07:00.494Z,98045.78
2018-11-26T23:09:29.195Z,98055.34
2018-11-26T23:11:57.879Z,98062.41
2018-11-26T23:14:26.210Z,98059.76
2018-11-26T23:16:54.611Z,98061.97
2018-11-26T23:19:23.321Z,98068.09
2018-11-26T23:21:51.672Z,98062.83
2018-11-26T23:24:20.032Z,98067.16
2018-11-26T23:26:48.392Z,98069.37
2018-11-26T23:31:51.152Z,98066.48
2018-11-26T23:34:19.538Z,98070.30
2018-11-26T23:36:48.133Z,98074.08
2018-11-26T23:42:04.332Z,98073.77
2018-11-26T23:44:33.017Z,98078.97
2018-11-26T23:47:01.751Z,98084.75
2018-11-26T23:49:30.049Z,98084.82
2018-11-26T23:51:58.391Z,98090.02
2018-11-26T23:57:01.196Z,98086.61
2018-11-26T23:59:29.538Z,98082.71
